createdAt,value
2023-03-11T00:02:41.035Z,-0.23
2023-03-11T00:07:42.897Z,-0.35
2023-03-11T00:12:44.412Z,-0.37
2023-03-11T00:17:47.936Z,-0.41
2023-03-11T00:22:51.056Z,-0.49
2023-03-11T00:27:52.813Z,-0.52
2023-03-11T00:32:57.295Z,-0.61
2023-03-11T00:38:01.709Z,-0.63
2023-03-11T00:43:03.964Z,-0.61
2023-03-11T00:48:05.838Z,-0.54
2023-03-11T00:53:07.432Z,-0.50
2023-03-11T00:58:10.410Z,-0.51
2023-03-11T01:03:11.976Z,-0.59
2023-03-11T01:08:13.499Z,-0.52
2023-03-11T01:13:15.048Z,-0.51
2023-03-11T01:18:16.633Z,-0.51
2023-03-11T01:23:19.651Z,-0.56
2023-03-11T01:28:21.226Z,-0.58
2023-03-11T01:33:22.876Z,-0.70
2023-03-11T01:38:24.407Z,-0.72
2023-03-11T01:43:44.028Z,-0.74
2023-03-11T01:48:53.961Z,-0.84
2023-03-11T01:53:57.205Z,-0.88
2023-03-11T01:58:58.896Z,-0.90
2023-03-11T02:04:03.626Z,-1.00
2023-03-11T02:09:05.191Z,-1.34
2023-03-11T02:14:08.892Z,-1.56
2023-03-11T02:19:30.670Z,-1.72
2023-03-11T02:24:46.090Z,-1.71
2023-03-11T02:29:50.056Z,-1.92
2023-03-11T02:34:51.519Z,-2.29
2023-03-11T02:39:54.779Z,-2.50
2023-03-11T02:45:12.593Z,-2.32
2023-03-11T02:50:16.872Z,-1.97
2023-03-11T02:55:20.281Z,-1.41
2023-03-11T03:00:22.120Z,-1.20
2023-03-11T03:05:23.672Z,-1.11
2023-03-11T03:10:25.211Z,-1.14
2023-03-11T03:15:26.775Z,-1.13
2023-03-11T03:20:28.250Z,-1.18
2023-03-11T03:25:30.274Z,-1.31
2023-03-11T03:30:31.745Z,-1.37
2023-03-11T03:35:33.947Z,-1.43
2023-03-11T03:40:35.593Z,-1.44
2023-03-11T03:45:37.151Z,-1.47
2023-03-11T03:50:39.899Z,-1.49
2023-03-11T03:55:41.384Z,-1.45
2023-03-11T04:00:42.918Z,-1.47
2023-03-11T04:05:44.395Z,-1.51
2023-03-11T04:10:56.954Z,-1.58
2023-03-11T04:15:58.583Z,-1.66
2023-03-11T04:21:00.203Z,-1.78
2023-03-11T04:26:01.886Z,-1.98
2023-03-11T04:31:03.724Z,-2.35
2023-03-11T04:36:07.528Z,-2.71
2023-03-11T04:41:09.042Z,-2.97
2023-03-11T04:46:10.768Z,-3.57
2023-03-11T04:51:12.376Z,-3.86
2023-03-11T04:56:13.915Z,-3.99
2023-03-11T05:01:15.393Z,-3.64
2023-03-11T05:06:16.848Z,-2.86
2023-03-11T05:11:18.359Z,-2.59
2023-03-11T05:16:19.858Z,-2.48
2023-03-11T05:21:21.438Z,-2.45
2023-03-11T05:26:22.956Z,-2.55
2023-03-11T05:31:24.477Z,-2.65
2023-03-11T05:36:26.322Z,-2.67
2023-03-11T05:41:27.837Z,-2.66
2023-03-11T05:46:29.545Z,-2.72
2023-03-11T05:51:31.330Z,-2.91
2023-03-11T05:56:32.892Z,-3.39
2023-03-11T06:01:34.658Z,-3.58
2023-03-11T06:06:36.409Z,-3.82
2023-03-11T06:11:37.933Z,-4.15
2023-03-11T06:16:39.764Z,-4.54
2023-03-11T06:21:41.850Z,-4.62
2023-03-11T06:26:44.039Z,-4.69
2023-03-11T06:31:45.593Z,-4.42
2023-03-11T06:36:47.136Z,-3.58
2023-03-11T06:41:48.607Z,-3.06
2023-03-11T06:46:50.072Z,-2.81
2023-03-11T06:51:51.541Z,-2.61
2023-03-11T06:56:53.005Z,-2.48
2023-03-11T07:01:55.374Z,-2.33
2023-03-11T07:06:57.346Z,-2.18
2023-03-11T07:11:58.899Z,-2.05
2023-03-11T07:17:00.563Z,-1.92
2023-03-11T07:22:02.206Z,-1.78
2023-03-11T07:27:03.872Z,-1.65
2023-03-11T07:32:07.209Z,-1.43
2023-03-11T07:37:08.826Z,-1.19
2023-03-11T07:42:10.375Z,-0.97
2023-03-11T07:47:11.895Z,-0.71
2023-03-11T07:52:13.418Z,-0.54
2023-03-11T07:57:17.204Z,-0.28
2023-03-11T08:02:18.890Z,-0.05
2023-03-11T08:07:20.830Z,0.09
2023-03-11T08:12:22.316Z,0.02
2023-03-11T08:17:24.022Z,-0.04
2023-03-11T08:22:25.554Z,0.10
2023-03-11T08:27:28.807Z,0.30
2023-03-11T08:32:31.602Z,0.48
2023-03-11T08:37:33.142Z,0.39
2023-03-11T08:42:36.236Z,0.22
2023-03-11T08:47:39.186Z,0.29
2023-03-11T08:52:40.759Z,0.76
2023-03-11T08:57:42.345Z,1.00
2023-03-11T09:02:43.944Z,1.06
2023-03-11T09:07:45.562Z,1.17
2023-03-11T09:12:47.125Z,1.29
2023-03-11T09:17:48.684Z,1.48
2023-03-11T09:22:50.216Z,1.48
2023-03-11T09:27:51.747Z,1.49
2023-03-11T09:32:53.387Z,1.43
2023-03-11T09:37:54.900Z,1.54
2023-03-11T09:42:59.352Z,2.12
2023-03-11T09:48:18.300Z,3.08
2023-03-11T09:53:40.569Z,3.64
2023-03-11T09:58:47.052Z,3.71
2023-03-11T10:03:51.495Z,3.68
2023-03-11T10:09:27.096Z,3.57
2023-03-11T10:14:56.439Z,3.49
2023-03-11T10:20:05.744Z,3.50
2023-03-11T10:25:19.240Z,3.70
2023-03-11T10:30:23.351Z,4.02
2023-03-11T10:35:36.353Z,3.89
2023-03-11T10:40:41.716Z,3.81
2023-03-11T10:45:46.060Z,4.06
2023-03-11T10:50:47.683Z,4.24
2023-03-11T10:55:51.906Z,4.18
2023-03-11T11:01:14.929Z,4.33
2023-03-11T11:06:33.997Z,4.53
2023-03-11T11:11:36.492Z,4.76
2023-03-11T11:16:38.257Z,4.97
2023-03-11T11:21:49.768Z,4.99
2023-03-11T11:27:22.765Z,4.87
2023-03-11T11:32:26.104Z,5.11
2023-03-11T11:37:31.985Z,5.18
2023-03-11T11:42:34.033Z,5.23
2023-03-11T11:47:39.366Z,4.96
2023-03-11T11:52:47.561Z,5.16
2023-03-11T11:57:51.060Z,5.38
2023-03-11T12:03:17.449Z,5.26
2023-03-11T12:08:35.843Z,5.21
2023-03-11T12:14:00.508Z,5.21
2023-03-11T12:19:18.583Z,5.16
2023-03-11T12:24:19.890Z,5.36
2023-03-11T12:29:43.340Z,5.31
2023-03-11T12:34:44.987Z,5.37
2023-03-11T12:39:46.789Z,5.46
2023-03-11T12:44:49.527Z,5.54
2023-03-11T12:49:57.248Z,5.55
2023-03-11T12:54:58.652Z,5.26
2023-03-11T13:00:34.884Z,5.22
2023-03-11T13:05:39.404Z,5.47
2023-03-11T13:10:44.314Z,5.65
2023-03-11T13:15:45.956Z,5.75
2023-03-11T13:20:50.086Z,5.57
2023-03-11T13:25:51.558Z,5.78
2023-03-11T13:31:08.034Z,5.74
2023-03-11T13:36:18.471Z,5.65
2023-03-11T13:41:27.521Z,5.71
2023-03-11T13:46:35.688Z,5.82
2023-03-11T13:51:44.095Z,5.88
2023-03-11T13:56:51.052Z,5.90
2023-03-11T14:01:55.996Z,6.04
2023-03-11T14:06:59.272Z,6.13
2023-03-11T14:12:06.867Z,6.18
2023-03-11T14:17:15.745Z,6.19
2023-03-11T14:22:17.300Z,5.91
2023-03-11T14:27:19.936Z,6.00
2023-03-11T14:32:27.746Z,5.90
2023-03-11T14:37:36.446Z,5.85
2023-03-11T14:42:41.078Z,5.45
2023-03-11T14:48:12.897Z,5.26
2023-03-11T14:53:21.447Z,5.08
2023-03-11T14:58:37.046Z,5.01
2023-03-11T15:03:47.201Z,5.12
2023-03-11T15:08:55.841Z,5.16
2023-03-11T15:14:17.580Z,5.09
2023-03-11T15:19:28.051Z,5.14
2023-03-11T15:24:33.089Z,5.19
2023-03-11T15:29:36.012Z,5.24
2023-03-11T15:34:38.445Z,4.99
2023-03-11T15:39:45.128Z,4.65
2023-03-11T15:45:13.359Z,4.39
2023-03-11T15:50:24.174Z,4.30
2023-03-11T15:55:27.860Z,4.16
2023-03-11T16:00:29.534Z,3.98
2023-03-11T16:05:32.194Z,4.07
2023-03-11T16:10:33.656Z,4.21
2023-03-11T16:15:37.905Z,4.33
2023-03-11T16:20:46.412Z,4.33
2023-03-11T16:25:48.883Z,4.24
2023-03-11T16:30:51.301Z,4.19
2023-03-11T16:35:52.842Z,4.04
2023-03-11T16:40:59.619Z,3.84
2023-03-11T16:46:01.145Z,3.54
2023-03-11T16:51:03.127Z,3.32
2023-03-11T16:56:05.728Z,3.39
2023-03-11T17:01:07.299Z,3.30
2023-03-11T17:06:09.365Z,3.33
2023-03-11T17:11:18.912Z,3.37
2023-03-11T17:16:20.634Z,3.48
2023-03-11T17:21:22.501Z,3.49
2023-03-11T17:26:26.291Z,3.38
2023-03-11T17:31:27.937Z,3.27
2023-03-11T17:36:29.487Z,2.95
2023-03-11T17:41:31.056Z,2.72
2023-03-11T17:46:33.376Z,2.64
2023-03-11T17:51:36.085Z,2.51
2023-03-11T17:56:37.567Z,2.49
2023-03-11T18:01:39.424Z,2.46
2023-03-11T18:06:41.109Z,2.33
2023-03-11T18:11:42.601Z,2.26
2023-03-11T18:16:44.211Z,2.18
2023-03-11T18:21:45.740Z,2.10
2023-03-11T18:26:47.245Z,2.10
2023-03-11T18:31:49.932Z,2.09
2023-03-11T18:36:51.482Z,2.13
2023-03-11T18:41:53.015Z,2.19
2023-03-11T18:46:54.546Z,2.31
2023-03-11T18:51:56.014Z,2.30
2023-03-11T18:56:57.580Z,2.33
2023-03-11T19:01:59.145Z,2.35
2023-03-11T19:07:00.650Z,2.39
2023-03-11T19:12:02.270Z,2.40
2023-03-11T19:17:03.877Z,2.34
2023-03-11T19:22:05.771Z,2.29
2023-03-11T19:27:07.305Z,2.23
2023-03-11T19:32:08.924Z,2.17
2023-03-11T19:37:10.455Z,2.02
2023-03-11T19:42:11.936Z,1.95
2023-03-11T19:47:13.470Z,1.95
2023-03-11T19:52:15.402Z,1.88
2023-03-11T19:57:17.131Z,1.88
2023-03-11T20:02:18.698Z,1.77
2023-03-11T20:07:20.369Z,1.72
2023-03-11T20:12:21.917Z,1.69
2023-03-11T20:17:23.502Z,1.68
2023-03-11T20:22:26.272Z,1.53
2023-03-11T20:27:28.095Z,1.42
2023-03-11T20:32:30.955Z,1.31
2023-03-11T20:37:33.118Z,1.29
2023-03-11T20:42:34.729Z,1.18
2023-03-11T20:47:36.511Z,1.11
2023-03-11T20:52:38.101Z,1.06
2023-03-11T20:57:40.451Z,1.08
2023-03-11T21:02:43.187Z,1.13
2023-03-11T21:07:44.909Z,1.14
2023-03-11T21:12:46.499Z,1.17
2023-03-11T21:17:48.135Z,1.14
2023-03-11T21:22:49.720Z,0.93
2023-03-11T21:27:51.188Z,0.82
2023-03-11T21:32:52.870Z,0.97
2023-03-11T21:37:54.594Z,1.11
2023-03-11T21:42:56.219Z,1.24
2023-03-11T21:47:57.770Z,1.24
2023-03-11T21:52:59.277Z,1.24
2023-03-11T21:58:00.846Z,1.22
2023-03-11T22:03:02.562Z,1.19
2023-03-11T22:08:04.942Z,1.06
2023-03-11T22:13:06.576Z,0.81
2023-03-11T22:18:08.232Z,0.68
2023-03-11T22:23:09.902Z,0.61
2023-03-11T22:28:13.008Z,0.58
2023-03-11T22:33:14.660Z,0.58
2023-03-11T22:38:16.259Z,0.48
2023-03-11T22:43:17.835Z,0.42
2023-03-11T22:48:19.319Z,0.41
2023-03-11T22:53:23.017Z,0.64
2023-03-11T22:58:24.558Z,0.71
2023-03-11T23:03:26.463Z,0.35
2023-03-11T23:08:28.645Z,0.15
2023-03-11T23:13:31.323Z,0.03
2023-03-11T23:18:33.920Z,0.05
2023-03-11T23:23:35.446Z,0.48
2023-03-11T23:28:37.305Z,0.97
2023-03-11T23:33:39.662Z,1.18
2023-03-11T23:38:41.558Z,1.38
2023-03-11T23:43:43.447Z,1.44
2023-03-11T23:48:44.990Z,1.48
2023-03-11T23:53:46.481Z,1.45
2023-03-11T23:58:48.060Z,1.54
